SPCL/PCL METAR and TAF weather

Enter ICAO airport designator
Station Type Date Time Source
SPCL METAR 2020/04/07 15:00 UTC NOAA

SPCL 071500Z 27003KT 9999 BKN017 30/25 Q1016 RMK BIRD HAZARD RWY 02/20 PP000


Station Type Date Time Source
SPCL Decoded METAR 2020/04/07 15:00 UTC NOAA

Pucallpa, Peru (SPCL) 08-25S 074-36W 149M
Apr 07, 2020 - 11:00 AM EDT / 2020.04.07 1500 UTC
Wind: from the W (270 degrees) at 3 MPH (3 KT):0
Visibility: greater than 7 mile(s):0
Sky conditions: mostly cloudy
Temperature: 86 F (30 C)
Heat index: 96.8 F (36.0 C):1
Dew Point: 77 F (25 C)
Relative Humidity: 74%
Pressure (altimeter): 30.00 in. Hg (1016 hPa)
ob: SPCL 071500Z 27003KT 9999 BKN017 30/25 Q1016 RMK BIRD HAZARD RWY 02/20 PP000
cycle: 15

Station Type Date Time Source
SPCL TAF 2020/04/07 12:33 UTC NOAA

TAF SPCL 071100Z 0712/0812 01004KT 9999 BKN015 BKN080 TX31/0720Z TN23/0811Z
TEMPO 0715/0719 4000 RADZ BKN008 BKN070
TEMPO 0720/0724 09010KT 4000 SHRA BKN010 FEW025TCU BKN070

Example: see airport list